sensor_id;sensor_type;location;lat;lon;timestamp;temperature;humidity
45233;DHT22;30969;51.052;17.056;2023-03-01T00:01:17;2.80;59.70
45233;DHT22;30969;51.052;17.056;2023-03-01T00:06:22;2.70;59.70
45233;DHT22;30969;51.052;17.056;2023-03-01T00:11:28;2.70;59.80
45233;DHT22;30969;51.052;17.056;2023-03-01T00:16:36;2.70;60.00
45233;DHT22;30969;51.052;17.056;2023-03-01T00:21:42;2.70;60.00
45233;DHT22;30969;51.052;17.056;2023-03-01T00:26:46;2.70;60.00
45233;DHT22;30969;51.052;17.056;2023-03-01T00:31:50;2.70;59.90
45233;DHT22;30969;51.052;17.056;2023-03-01T00:36:55;2.80;60.50
45233;DHT22;30969;51.052;17.056;2023-03-01T00:42:07;2.70;59.80
45233;DHT22;30969;51.052;17.056;2023-03-01T00:47:11;2.70;60.00
45233;DHT22;30969;51.052;17.056;2023-03-01T00:52:17;2.60;60.00
45233;DHT22;30969;51.052;17.056;2023-03-01T00:57:20;2.60;60.20
45233;DHT22;30969;51.052;17.056;2023-03-01T01:02:24;2.60;60.50
45233;DHT22;30969;51.052;17.056;2023-03-01T01:07:29;2.60;60.70
45233;DHT22;30969;51.052;17.056;2023-03-01T01:12:32;2.40;61.00
45233;DHT22;30969;51.052;17.056;2023-03-01T01:17:35;2.30;61.30
45233;DHT22;30969;51.052;17.056;2023-03-01T01:22:41;2.30;61.50
45233;DHT22;30969;51.052;17.056;2023-03-01T01:27:47;2.30;61.40
45233;DHT22;30969;51.052;17.056;2023-03-01T01:32:50;2.30;61.30
45233;DHT22;30969;51.052;17.056;2023-03-01T01:37:55;2.20;61.40
45233;DHT22;30969;51.052;17.056;2023-03-01T01:42:58;2.20;61.20
45233;DHT22;30969;51.052;17.056;2023-03-01T01:48:06;2.20;61.20
45233;DHT22;30969;51.052;17.056;2023-03-01T01:53:14;2.20;61.30
45233;DHT22;30969;51.052;17.056;2023-03-01T01:58:21;2.20;61.30
45233;DHT22;30969;51.052;17.056;2023-03-01T02:03:27;2.10;61.50
45233;DHT22;30969;51.052;17.056;2023-03-01T02:08:39;2.10;61.40
45233;DHT22;30969;51.052;17.056;2023-03-01T02:13:43;2.10;61.80
45233;DHT22;30969;51.052;17.056;2023-03-01T02:18:47;2.10;61.30
45233;DHT22;30969;51.052;17.056;2023-03-01T02:23:53;2.10;61.20
45233;DHT22;30969;51.052;17.056;2023-03-01T02:28:59;2.10;61.20
45233;DHT22;30969;51.052;17.056;2023-03-01T02:34:03;2.00;61.20
45233;DHT22;30969;51.052;17.056;2023-03-01T02:39:10;1.80;61.30
45233;DHT22;30969;51.052;17.056;2023-03-01T02:44:18;1.70;61.90
45233;DHT22;30969;51.052;17.056;2023-03-01T02:49:24;1.70;62.10
45233;DHT22;30969;51.052;17.056;2023-03-01T02:54:30;1.70;61.90
45233;DHT22;30969;51.052;17.056;2023-03-01T02:59:37;1.70;61.90
45233;DHT22;30969;51.052;17.056;2023-03-01T03:04:42;1.70;62.00
45233;DHT22;30969;51.052;17.056;2023-03-01T03:09:46;1.70;62.10
45233;DHT22;30969;51.052;17.056;2023-03-01T03:14:51;1.70;61.90
45233;DHT22;30969;51.052;17.056;2023-03-01T03:19:55;1.70;62.00
45233;DHT22;30969;51.052;17.056;2023-03-01T03:24:58;1.60;62.10
45233;DHT22;30969;51.052;17.056;2023-03-01T03:30:05;1.60;62.20
45233;DHT22;30969;51.052;17.056;2023-03-01T03:35:10;1.60;62.20
45233;DHT22;30969;51.052;17.056;2023-03-01T03:40:14;1.70;62.20
45233;DHT22;30969;51.052;17.056;2023-03-01T03:45:19;1.70;62.10
45233;DHT22;30969;51.052;17.056;2023-03-01T03:50:23;1.70;62.00
45233;DHT22;30969;51.052;17.056;2023-03-01T03:55:26;1.60;61.90
45233;DHT22;30969;51.052;17.056;2023-03-01T04:00:35;1.60;61.90
45233;DHT22;30969;51.052;17.056;2023-03-01T04:05:40;1.60;61.80
45233;DHT22;30969;51.052;17.056;2023-03-01T04:10:46;1.60;61.70
45233;DHT22;30969;51.052;17.056;2023-03-01T04:15:52;1.60;61.80
45233;DHT22;30969;51.052;17.056;2023-03-01T04:20:56;1.50;61.80
45233;DHT22;30969;51.052;17.056;2023-03-01T04:25:59;1.50;62.00
45233;DHT22;30969;51.052;17.056;2023-03-01T04:31:08;1.50;62.10
45233;DHT22;30969;51.052;17.056;2023-03-01T04:36:16;1.40;62.00
45233;DHT22;30969;51.052;17.056;2023-03-01T04:41:21;1.40;62.00
45233;DHT22;30969;51.052;17.056;2023-03-01T04:46:27;1.40;62.00
45233;DHT22;30969;51.052;17.056;2023-03-01T04:51:31;1.40;62.40
45233;DHT22;30969;51.052;17.056;2023-03-01T04:56:35;1.30;62.50
45233;DHT22;30969;51.052;17.056;2023-03-01T05:01:40;1.30;62.60
45233;DHT22;30969;51.052;17.056;2023-03-01T05:06:45;1.20;62.90
45233;DHT22;30969;51.052;17.056;2023-03-01T05:11:48;1.10;63.20
45233;DHT22;30969;51.052;17.056;2023-03-01T05:16:55;1.00;63.60
45233;DHT22;30969;51.052;17.056;2023-03-01T05:22:05;1.00;63.70
45233;DHT22;30969;51.052;17.056;2023-03-01T05:27:09;1.10;63.60
45233;DHT22;30969;51.052;17.056;2023-03-01T05:32:16;1.20;63.50
45233;DHT22;30969;51.052;17.056;2023-03-01T05:37:19;1.10;63.30
45233;DHT22;30969;51.052;17.056;2023-03-01T05:42:23;1.10;63.10
45233;DHT22;30969;51.052;17.056;2023-03-01T05:47:27;1.20;63.10
45233;DHT22;30969;51.052;17.056;2023-03-01T05:52:31;1.20;63.10
45233;DHT22;30969;51.052;17.056;2023-03-01T05:57:34;1.20;63.10
45233;DHT22;30969;51.052;17.056;2023-03-01T06:02:39;1.10;63.20
45233;DHT22;30969;51.052;17.056;2023-03-01T06:07:43;1.00;63.50
45233;DHT22;30969;51.052;17.056;2023-03-01T06:12:47;1.00;64.00
45233;DHT22;30969;51.052;17.056;2023-03-01T06:17:54;1.00;64.00
45233;DHT22;30969;51.052;17.056;2023-03-01T06:23:01;1.00;64.40
45233;DHT22;30969;51.052;17.056;2023-03-01T06:28:04;0.90;65.00
45233;DHT22;30969;51.052;17.056;2023-03-01T06:33:09;0.80;65.60
45233;DHT22;30969;51.052;17.056;2023-03-01T06:38:13;0.80;65.90
45233;DHT22;30969;51.052;17.056;2023-03-01T06:43:17;0.90;65.70
45233;DHT22;30969;51.052;17.056;2023-03-01T06:48:21;1.10;65.60
45233;DHT22;30969;51.052;17.056;2023-03-01T06:53:25;1.20;65.40
45233;DHT22;30969;51.052;17.056;2023-03-01T06:58:28;1.30;65.40
45233;DHT22;30969;51.052;17.056;2023-03-01T07:03:33;1.40;65.30
45233;DHT22;30969;51.052;17.056;2023-03-01T07:08:37;1.50;65.30
45233;DHT22;30969;51.052;17.056;2023-03-01T07:13:41;1.60;65.20
45233;DHT22;30969;51.052;17.056;2023-03-01T07:18:46;1.70;65.20
45233;DHT22;30969;51.052;17.056;2023-03-01T07:23:49;1.80;65.20
45233;DHT22;30969;51.052;17.056;2023-03-01T07:28:53;1.90;65.20
45233;DHT22;30969;51.052;17.056;2023-03-01T07:33:58;2.10;65.10
45233;DHT22;30969;51.052;17.056;2023-03-01T07:39:01;2.10;65.30
45233;DHT22;30969;51.052;17.056;2023-03-01T07:44:05;2.10;65.60
45233;DHT22;30969;51.052;17.056;2023-03-01T07:49:10;2.20;65.70
45233;DHT22;30969;51.052;17.056;2023-03-01T07:54:14;2.30;65.60
45233;DHT22;30969;51.052;17.056;2023-03-01T07:59:17;2.30;65.30
45233;DHT22;30969;51.052;17.056;2023-03-01T08:04:23;2.40;65.10
45233;DHT22;30969;51.052;17.056;2023-03-01T08:09:27;2.50;65.10
45233;DHT22;30969;51.052;17.056;2023-03-01T08:14:30;2.60;65.00
45233;DHT22;30969;51.052;17.056;2023-03-01T08:19:35;2.70;65.00
45233;DHT22;30969;51.052;17.056;2023-03-01T08:24:38;2.80;65.00
45233;DHT22;30969;51.052;17.056;2023-03-01T08:29:42;2.90;64.90
45233;DHT22;30969;51.052;17.056;2023-03-01T08:34:47;3.00;64.50
45233;DHT22;30969;51.052;17.056;2023-03-01T08:39:51;3.00;64.40
45233;DHT22;30969;51.052;17.056;2023-03-01T08:44:54;3.20;64.20
45233;DHT22;30969;51.052;17.056;2023-03-01T08:50:00;3.30;65.00
45233;DHT22;30969;51.052;17.056;2023-03-01T08:55:05;3.30;63.70
45233;DHT22;30969;51.052;17.056;2023-03-01T09:00:09;3.40;63.60
45233;DHT22;30969;51.052;17.056;2023-03-01T09:05:18;3.50;63.00
45233;DHT22;30969;51.052;17.056;2023-03-01T09:10:21;3.50;61.40
45233;DHT22;30969;51.052;17.056;2023-03-01T09:15:25;3.50;61.10
45233;DHT22;30969;51.052;17.056;2023-03-01T09:20:30;3.60;61.70
45233;DHT22;30969;51.052;17.056;2023-03-01T09:25:34;3.70;61.70
45233;DHT22;30969;51.052;17.056;2023-03-01T09:30:38;3.80;61.50
45233;DHT22;30969;51.052;17.056;2023-03-01T09:35:43;3.90;61.40
45233;DHT22;30969;51.052;17.056;2023-03-01T09:40:48;4.00;61.10
45233;DHT22;30969;51.052;17.056;2023-03-01T09:45:54;4.10;60.70
45233;DHT22;30969;51.052;17.056;2023-03-01T09:51:03;4.20;60.40
45233;DHT22;30969;51.052;17.056;2023-03-01T09:56:16;4.30;60.60
45233;DHT22;30969;51.052;17.056;2023-03-01T10:01:31;4.30;60.50
45233;DHT22;30969;51.052;17.056;2023-03-01T10:06:40;4.40;60.40
45233;DHT22;30969;51.052;17.056;2023-03-01T10:11:50;4.50;60.40
45233;DHT22;30969;51.052;17.056;2023-03-01T10:16:57;4.60;59.10
45233;DHT22;30969;51.052;17.056;2023-03-01T10:22:11;4.70;59.40
45233;DHT22;30969;51.052;17.056;2023-03-01T10:27:20;4.80;58.50
45233;DHT22;30969;51.052;17.056;2023-03-01T10:32:26;4.90;57.80
45233;DHT22;30969;51.052;17.056;2023-03-01T10:37:31;4.90;56.90
45233;DHT22;30969;51.052;17.056;2023-03-01T10:42:38;5.10;56.90
45233;DHT22;30969;51.052;17.056;2023-03-01T10:47:42;5.20;56.90
45233;DHT22;30969;51.052;17.056;2023-03-01T10:52:57;5.40;57.60
45233;DHT22;30969;51.052;17.056;2023-03-01T10:58:17;5.50;57.70
45233;DHT22;30969;51.052;17.056;2023-03-01T11:03:23;5.70;57.50
45233;DHT22;30969;51.052;17.056;2023-03-01T11:08:38;5.80;56.90
45233;DHT22;30969;51.052;17.056;2023-03-01T11:13:51;5.90;53.50
45233;DHT22;30969;51.052;17.056;2023-03-01T11:18:58;6.00;54.10
45233;DHT22;30969;51.052;17.056;2023-03-01T11:24:05;6.10;53.50
45233;DHT22;30969;51.052;17.056;2023-03-01T11:29:17;6.30;52.20
45233;DHT22;30969;51.052;17.056;2023-03-01T11:34:32;6.40;51.40
45233;DHT22;30969;51.052;17.056;2023-03-01T11:39:45;6.50;52.80
45233;DHT22;30969;51.052;17.056;2023-03-01T11:44:54;6.60;51.50
45233;DHT22;30969;51.052;17.056;2023-03-01T11:50:18;6.90;52.20
45233;DHT22;30969;51.052;17.056;2023-03-01T11:55:36;6.90;50.60
45233;DHT22;30969;51.052;17.056;2023-03-01T12:00:58;7.10;51.10
45233;DHT22;30969;51.052;17.056;2023-03-01T12:06:24;7.20;50.00
45233;DHT22;30969;51.052;17.056;2023-03-01T12:11:42;7.30;49.40
45233;DHT22;30969;51.052;17.056;2023-03-01T12:17:02;7.50;49.90
45233;DHT22;30969;51.052;17.056;2023-03-01T12:22:21;7.60;48.60
45233;DHT22;30969;51.052;17.056;2023-03-01T12:27:42;7.80;49.40
45233;DHT22;30969;51.052;17.056;2023-03-01T12:33:00;7.90;47.60
45233;DHT22;30969;51.052;17.056;2023-03-01T12:38:14;8.00;46.50
45233;DHT22;30969;51.052;17.056;2023-03-01T12:43:33;8.20;46.20
45233;DHT22;30969;51.052;17.056;2023-03-01T12:48:45;8.30;46.40
45233;DHT22;30969;51.052;17.056;2023-03-01T12:53:52;8.50;45.60
45233;DHT22;30969;51.052;17.056;2023-03-01T12:59:03;8.50;44.90
45233;DHT22;30969;51.052;17.056;2023-03-01T13:04:27;8.60;43.90
45233;DHT22;30969;51.052;17.056;2023-03-01T13:09:39;8.70;45.10
45233;DHT22;30969;51.052;17.056;2023-03-01T13:14:47;8.90;44.40
45233;DHT22;30969;51.052;17.056;2023-03-01T13:19:56;9.00;43.60
45233;DHT22;30969;51.052;17.056;2023-03-01T13:25:14;9.00;42.20
45233;DHT22;30969;51.052;17.056;2023-03-01T13:30:41;9.10;41.80
45233;DHT22;30969;51.052;17.056;2023-03-01T13:35:45;9.20;40.40
45233;DHT22;30969;51.052;17.056;2023-03-01T13:40:59;9.30;41.20
45233;DHT22;30969;51.052;17.056;2023-03-01T13:46:11;9.50;41.50
45233;DHT22;30969;51.052;17.056;2023-03-01T13:51:22;9.60;41.10
45233;DHT22;30969;51.052;17.056;2023-03-01T13:56:28;9.70;40.50
45233;DHT22;30969;51.052;17.056;2023-03-01T14:01:37;9.70;39.70
45233;DHT22;30969;51.052;17.056;2023-03-01T14:06:44;9.70;36.90
45233;DHT22;30969;51.052;17.056;2023-03-01T14:12:15;9.80;39.10
45233;DHT22;30969;51.052;17.056;2023-03-01T14:23:10;9.80;39.20
45233;DHT22;30969;51.052;17.056;2023-03-01T14:28:16;10.00;38.80
45233;DHT22;30969;51.052;17.056;2023-03-01T14:33:25;10.20;40.60
45233;DHT22;30969;51.052;17.056;2023-03-01T14:38:32;10.30;40.00
45233;DHT22;30969;51.052;17.056;2023-03-01T14:43:37;10.50;40.20
45233;DHT22;30969;51.052;17.056;2023-03-01T14:48:44;10.40;38.30
45233;DHT22;30969;51.052;17.056;2023-03-01T14:53:47;10.40;39.20
45233;DHT22;30969;51.052;17.056;2023-03-01T14:58:53;10.30;37.50
45233;DHT22;30969;51.052;17.056;2023-03-01T15:03:58;10.10;36.60
45233;DHT22;30969;51.052;17.056;2023-03-01T15:09:03;10.00;38.30
45233;DHT22;30969;51.052;17.056;2023-03-01T15:14:26;9.90;39.30
45233;DHT22;30969;51.052;17.056;2023-03-01T15:19:30;9.80;37.30
45233;DHT22;30969;51.052;17.056;2023-03-01T15:24:34;9.60;36.10
45233;DHT22;30969;51.052;17.056;2023-03-01T15:29:38;9.50;37.00
45233;DHT22;30969;51.052;17.056;2023-03-01T15:34:44;9.40;38.20
45233;DHT22;30969;51.052;17.056;2023-03-01T15:39:53;9.30;38.60
45233;DHT22;30969;51.052;17.056;2023-03-01T15:45:08;9.20;38.20
45233;DHT22;30969;51.052;17.056;2023-03-01T15:50:18;9.10;38.00
45233;DHT22;30969;51.052;17.056;2023-03-01T15:55:23;9.00;38.60
45233;DHT22;30969;51.052;17.056;2023-03-01T16:00:28;8.90;38.10
45233;DHT22;30969;51.052;17.056;2023-03-01T16:05:34;8.80;38.20
45233;DHT22;30969;51.052;17.056;2023-03-01T16:10:39;8.70;38.70
45233;DHT22;30969;51.052;17.056;2023-03-01T16:15:43;8.60;39.10
45233;DHT22;30969;51.052;17.056;2023-03-01T16:20:48;8.60;39.00
45233;DHT22;30969;51.052;17.056;2023-03-01T16:25:51;8.50;39.30
45233;DHT22;30969;51.052;17.056;2023-03-01T16:30:55;8.30;39.10
45233;DHT22;30969;51.052;17.056;2023-03-01T16:36:00;8.30;39.60
45233;DHT22;30969;51.052;17.056;2023-03-01T16:41:04;8.20;39.80
45233;DHT22;30969;51.052;17.056;2023-03-01T16:46:11;8.10;40.00
45233;DHT22;30969;51.052;17.056;2023-03-01T16:51:16;8.00;40.00
45233;DHT22;30969;51.052;17.056;2023-03-01T16:56:20;8.00;40.20
45233;DHT22;30969;51.052;17.056;2023-03-01T17:01:23;7.90;40.30
45233;DHT22;30969;51.052;17.056;2023-03-01T17:06:29;7.80;40.50
45233;DHT22;30969;51.052;17.056;2023-03-01T17:11:35;7.70;40.60
45233;DHT22;30969;51.052;17.056;2023-03-01T17:16:39;7.70;40.70
45233;DHT22;30969;51.052;17.056;2023-03-01T17:21:44;7.60;40.80
45233;DHT22;30969;51.052;17.056;2023-03-01T17:26:48;7.60;41.00
45233;DHT22;30969;51.052;17.056;2023-03-01T17:31:51;7.50;41.60
45233;DHT22;30969;51.052;17.056;2023-03-01T17:36:58;7.20;42.20
45233;DHT22;30969;51.052;17.056;2023-03-01T17:42:03;7.20;42.50
45233;DHT22;30969;51.052;17.056;2023-03-01T17:47:09;7.10;42.70
45233;DHT22;30969;51.052;17.056;2023-03-01T17:52:14;7.10;44.20
45233;DHT22;30969;51.052;17.056;2023-03-01T17:57:17;7.00;43.70
45233;DHT22;30969;51.052;17.056;2023-03-01T18:02:21;6.90;43.60
45233;DHT22;30969;51.052;17.056;2023-03-01T18:07:26;6.90;43.60
45233;DHT22;30969;51.052;17.056;2023-03-01T18:12:31;6.80;43.40
45233;DHT22;30969;51.052;17.056;2023-03-01T18:17:34;6.70;43.50
45233;DHT22;30969;51.052;17.056;2023-03-01T18:22:39;6.70;43.40
45233;DHT22;30969;51.052;17.056;2023-03-01T18:27:43;6.60;43.40
45233;DHT22;30969;51.052;17.056;2023-03-01T18:32:47;6.50;43.80
45233;DHT22;30969;51.052;17.056;2023-03-01T18:37:58;6.50;44.20
45233;DHT22;30969;51.052;17.056;2023-03-01T18:43:02;6.30;45.00
45233;DHT22;30969;51.052;17.056;2023-03-01T18:48:05;6.10;46.00
45233;DHT22;30969;51.052;17.056;2023-03-01T18:53:10;6.00;45.90
45233;DHT22;30969;51.052;17.056;2023-03-01T18:58:13;5.90;45.90
45233;DHT22;30969;51.052;17.056;2023-03-01T19:03:17;5.90;46.20
45233;DHT22;30969;51.052;17.056;2023-03-01T19:08:22;5.80;46.50
45233;DHT22;30969;51.052;17.056;2023-03-01T19:13:26;5.80;46.40
45233;DHT22;30969;51.052;17.056;2023-03-01T19:18:30;5.80;46.70
45233;DHT22;30969;51.052;17.056;2023-03-01T19:23:35;5.80;48.10
45233;DHT22;30969;51.052;17.056;2023-03-01T19:28:39;5.70;47.70
45233;DHT22;30969;51.052;17.056;2023-03-01T19:33:43;5.60;48.00
45233;DHT22;30969;51.052;17.056;2023-03-01T19:38:49;5.60;47.90
45233;DHT22;30969;51.052;17.056;2023-03-01T19:43:53;5.60;47.90
45233;DHT22;30969;51.052;17.056;2023-03-01T19:48:56;5.50;48.20
45233;DHT22;30969;51.052;17.056;2023-03-01T19:54:03;5.40;48.30
45233;DHT22;30969;51.052;17.056;2023-03-01T19:59:07;5.40;48.60
45233;DHT22;30969;51.052;17.056;2023-03-01T20:04:11;5.30;49.40
45233;DHT22;30969;51.052;17.056;2023-03-01T20:09:16;5.20;49.40
45233;DHT22;30969;51.052;17.056;2023-03-01T20:14:23;5.20;49.40
45233;DHT22;30969;51.052;17.056;2023-03-01T20:19:27;5.20;49.50
45233;DHT22;30969;51.052;17.056;2023-03-01T20:24:32;5.20;49.60
45233;DHT22;30969;51.052;17.056;2023-03-01T20:29:35;5.20;49.80
45233;DHT22;30969;51.052;17.056;2023-03-01T20:34:39;5.10;49.90
45233;DHT22;30969;51.052;17.056;2023-03-01T20:39:44;5.00;50.00
45233;DHT22;30969;51.052;17.056;2023-03-01T20:44:48;5.00;50.10
45233;DHT22;30969;51.052;17.056;2023-03-01T20:49:51;4.80;51.00
45233;DHT22;30969;51.052;17.056;2023-03-01T20:54:56;4.50;52.10
45233;DHT22;30969;51.052;17.056;2023-03-01T21:00:00;4.30;52.40
45233;DHT22;30969;51.052;17.056;2023-03-01T21:05:05;4.40;52.60
45233;DHT22;30969;51.052;17.056;2023-03-01T21:10:11;4.40;52.50
45233;DHT22;30969;51.052;17.056;2023-03-01T21:15:15;4.50;52.40
45233;DHT22;30969;51.052;17.056;2023-03-01T21:20:30;4.50;52.20
45233;DHT22;30969;51.052;17.056;2023-03-01T21:25:35;4.40;52.30
45233;DHT22;30969;51.052;17.056;2023-03-01T21:30:39;4.40;53.30
45233;DHT22;30969;51.052;17.056;2023-03-01T21:35:42;4.40;52.40
45233;DHT22;30969;51.052;17.056;2023-03-01T21:40:47;4.40;52.50
45233;DHT22;30969;51.052;17.056;2023-03-01T21:45:51;4.40;52.60
45233;DHT22;30969;51.052;17.056;2023-03-01T21:50:54;4.40;52.60
45233;DHT22;30969;51.052;17.056;2023-03-01T21:55:59;4.40;52.80
45233;DHT22;30969;51.052;17.056;2023-03-01T22:01:08;4.30;52.80
45233;DHT22;30969;51.052;17.056;2023-03-01T22:06:13;4.30;53.00
45233;DHT22;30969;51.052;17.056;2023-03-01T22:11:35;4.30;53.50
45233;DHT22;30969;51.052;17.056;2023-03-01T22:16:41;4.20;53.40
45233;DHT22;30969;51.052;17.056;2023-03-01T22:21:48;4.20;53.30
45233;DHT22;30969;51.052;17.056;2023-03-01T22:26:53;4.20;53.50
45233;DHT22;30969;51.052;17.056;2023-03-01T22:31:57;4.10;53.60
45233;DHT22;30969;51.052;17.056;2023-03-01T22:37:01;4.10;53.60
45233;DHT22;30969;51.052;17.056;2023-03-01T22:42:06;4.00;54.70
45233;DHT22;30969;51.052;17.056;2023-03-01T22:47:10;4.00;53.80
45233;DHT22;30969;51.052;17.056;2023-03-01T22:52:14;4.00;54.00
45233;DHT22;30969;51.052;17.056;2023-03-01T22:57:19;3.90;54.10
45233;DHT22;30969;51.052;17.056;2023-03-01T23:02:22;3.90;54.40
45233;DHT22;30969;51.052;17.056;2023-03-01T23:07:26;3.90;54.40
45233;DHT22;30969;51.052;17.056;2023-03-01T23:12:31;3.80;54.50
45233;DHT22;30969;51.052;17.056;2023-03-01T23:17:35;3.80;54.60
45233;DHT22;30969;51.052;17.056;2023-03-01T23:22:39;3.70;54.80
45233;DHT22;30969;51.052;17.056;2023-03-01T23:27:44;3.70;55.10
45233;DHT22;30969;51.052;17.056;2023-03-01T23:32:48;3.60;55.30
45233;DHT22;30969;51.052;17.056;2023-03-01T23:37:51;3.60;55.50
45233;DHT22;30969;51.052;17.056;2023-03-01T23:42:56;3.60;55.70
45233;DHT22;30969;51.052;17.056;2023-03-01T23:47:59;3.50;56.10
45233;DHT22;30969;51.052;17.056;2023-03-01T23:53:03;3.50;56.50
45233;DHT22;30969;51.052;17.056;2023-03-01T23:58:08;3.40;56.50
